Portada
METAR-TAF:

METAR-TAF

Aeropuertos :

El Borma, Túnez

latitud: 31-41N, longitud: 009-10E, altitud: 258 m

Observación

El informe se hizo hace 24 minutos, a las 14:00 UTC
Viento 19 kt del noreste
Temperatura 36°C
Humedad 33%
Presión 1013 hPa

METAR: DTTR 131400Z AUTO 04019KT NCD 36/17 Q1013

Hora: 15:24 (14:24 UTC)

Pronóstico

El informe se hizo hace 2 horas y 24 minutos, a las 12:00 UTC
Pronóstico válido del 13 a las 13 UTC al 13 a las 22 UTC
Viento 18 kt del norte
Visibilidad: 8000 m
Nubes dispersas a una altura de 2000 ft
Probabilidad 30% :
Temporalmente
del 13 a las 16 UTC al 13 a las 19 UTC
Viento 22 kt del noreste con ráfagas de 32 kt
Visibilidad: 4000 m
arena,

TAF: DTTR 131200Z 1313/1322 01018KT 8000 SCT020 PROB30 TEMPO 1316/1319 05022G32KT 4000 SA

Observaciones y pronósticos meteorológicos de más de 4000 aeropuertos (mensajes METAR y TAF).

Los puntos amarillos y rojos representan las estaciones disponibles.

Ponga el ratón en el punto deseado para ver el nombre de la estación.

Haga clic para ver las observaciones y los pronósticos meteorológicos.

Para cambiar el mapa : haga clic en los botones verdes con una cruz de color negro para hacer un zoom, en el botón verde con un guión para alejar o en las flechas verdes para mapas adyacentes.


METAR-TAF: